sensor_id;sensor_type;location;lat;lon;timestamp;pressure;altitude;pressure_sealevel;temperature
77414;BMP280;66486;49.992;19.164;2023-04-15T00:01:24;97547.25;;;10.13
77414;BMP280;66486;49.992;19.164;2023-04-15T00:03:51;97545.28;;;9.83
77414;BMP280;66486;49.992;19.164;2023-04-15T00:06:19;97542.81;;;9.67
77414;BMP280;66486;49.992;19.164;2023-04-15T00:08:45;97545.66;;;9.94
77414;BMP280;66486;49.992;19.164;2023-04-15T00:11:12;97548.56;;;10.09
77414;BMP280;66486;49.992;19.164;2023-04-15T00:13:38;97555.09;;;10.29
77414;BMP280;66486;49.992;19.164;2023-04-15T00:16:05;97562.59;;;10.34
77414;BMP280;66486;49.992;19.164;2023-04-15T00:18:33;97557.19;;;10.25
77414;BMP280;66486;49.992;19.164;2023-04-15T00:20:59;97566.22;;;10.40
77414;BMP280;66486;49.992;19.164;2023-04-15T00:23:25;97571.19;;;10.51
77414;BMP280;66486;49.992;19.164;2023-04-15T00:25:51;97576.59;;;10.60
77414;BMP280;66486;49.992;19.164;2023-04-15T00:28:17;97575.47;;;10.48
77414;BMP280;66486;49.992;19.164;2023-04-15T00:30:43;97576.19;;;10.40
77414;BMP280;66486;49.992;19.164;2023-04-15T00:33:10;97585.59;;;10.35
77414;BMP280;66486;49.992;19.164;2023-04-15T00:35:36;97586.91;;;10.31
77414;BMP280;66486;49.992;19.164;2023-04-15T00:38:03;97590.03;;;10.29
77414;BMP280;66486;49.992;19.164;2023-04-15T00:40:29;97591.28;;;10.37
77414;BMP280;66486;49.992;19.164;2023-04-15T00:42:55;97590.50;;;10.28
77414;BMP280;66486;49.992;19.164;2023-04-15T00:45:21;97594.06;;;10.25
77414;BMP280;66486;49.992;19.164;2023-04-15T00:47:48;97598.28;;;10.35
77414;BMP280;66486;49.992;19.164;2023-04-15T00:50:14;97594.84;;;10.34
77414;BMP280;66486;49.992;19.164;2023-04-15T00:52:40;97611.53;;;10.29
77414;BMP280;66486;49.992;19.164;2023-04-15T00:55:07;97614.94;;;9.99
77414;BMP280;66486;49.992;19.164;2023-04-15T00:57:34;97606.28;;;9.82
77414;BMP280;66486;49.992;19.164;2023-04-15T01:00:00;97583.19;;;9.63
77414;BMP280;66486;49.992;19.164;2023-04-15T01:02:27;97588.41;;;9.45
77414;BMP280;66486;49.992;19.164;2023-04-15T01:04:53;97587.06;;;9.62
77414;BMP280;66486;49.992;19.164;2023-04-15T01:07:19;97587.06;;;9.84
77414;BMP280;66486;49.992;19.164;2023-04-15T01:09:45;97589.97;;;10.11
77414;BMP280;66486;49.992;19.164;2023-04-15T01:12:13;97588.22;;;10.26
77414;BMP280;66486;49.992;19.164;2023-04-15T01:14:41;97592.53;;;10.24
77414;BMP280;66486;49.992;19.164;2023-04-15T01:17:07;97599.69;;;10.18
77414;BMP280;66486;49.992;19.164;2023-04-15T01:19:35;97599.13;;;10.01
77414;BMP280;66486;49.992;19.164;2023-04-15T01:22:02;97590.13;;;9.73
77414;BMP280;66486;49.992;19.164;2023-04-15T01:24:29;97583.97;;;9.85
77414;BMP280;66486;49.992;19.164;2023-04-15T01:26:55;97594.56;;;10.11
77414;BMP280;66486;49.992;19.164;2023-04-15T01:29:21;97591.75;;;9.71
77414;BMP280;66486;49.992;19.164;2023-04-15T01:31:52;97590.16;;;9.61
77414;BMP280;66486;49.992;19.164;2023-04-15T01:34:18;97594.69;;;9.29
77414;BMP280;66486;49.992;19.164;2023-04-15T01:36:44;97602.38;;;9.40
77414;BMP280;66486;49.992;19.164;2023-04-15T01:39:11;97605.66;;;9.57
77414;BMP280;66486;49.992;19.164;2023-04-15T01:41:37;97608.41;;;9.78
77414;BMP280;66486;49.992;19.164;2023-04-15T01:44:03;97614.72;;;9.72
77414;BMP280;66486;49.992;19.164;2023-04-15T01:46:28;97618.41;;;9.65
77414;BMP280;66486;49.992;19.164;2023-04-15T01:48:55;97620.97;;;9.69
77414;BMP280;66486;49.992;19.164;2023-04-15T01:51:21;97613.97;;;9.71
77414;BMP280;66486;49.992;19.164;2023-04-15T01:53:48;97620.28;;;9.56
77414;BMP280;66486;49.992;19.164;2023-04-15T01:56:13;97619.94;;;9.54
77414;BMP280;66486;49.992;19.164;2023-04-15T01:58:39;97623.09;;;9.40
77414;BMP280;66486;49.992;19.164;2023-04-15T02:01:05;97627.19;;;9.31
77414;BMP280;66486;49.992;19.164;2023-04-15T02:03:32;97637.44;;;9.46
77414;BMP280;66486;49.992;19.164;2023-04-15T02:05:58;97634.19;;;9.42
77414;BMP280;66486;49.992;19.164;2023-04-15T02:08:24;97638.44;;;9.52
77414;BMP280;66486;49.992;19.164;2023-04-15T02:10:50;97643.13;;;9.60
77414;BMP280;66486;49.992;19.164;2023-04-15T02:13:16;97644.16;;;9.41
77414;BMP280;66486;49.992;19.164;2023-04-15T02:15:49;97630.31;;;9.17
77414;BMP280;66486;49.992;19.164;2023-04-15T02:18:17;97636.31;;;9.34
77414;BMP280;66486;49.992;19.164;2023-04-15T02:20:43;97638.56;;;9.48
77414;BMP280;66486;49.992;19.164;2023-04-15T02:23:10;97648.44;;;9.38
77414;BMP280;66486;49.992;19.164;2023-04-15T02:25:36;97651.69;;;9.33
77414;BMP280;66486;49.992;19.164;2023-04-15T02:28:04;97658.50;;;9.47
77414;BMP280;66486;49.992;19.164;2023-04-15T02:30:31;97660.34;;;9.50
77414;BMP280;66486;49.992;19.164;2023-04-15T02:32:58;97650.38;;;9.25
77414;BMP280;66486;49.992;19.164;2023-04-15T02:35:24;97663.81;;;9.00
77414;BMP280;66486;49.992;19.164;2023-04-15T02:37:50;97658.09;;;8.98
77414;BMP280;66486;49.992;19.164;2023-04-15T02:40:17;97655.00;;;8.87
77414;BMP280;66486;49.992;19.164;2023-04-15T02:42:43;97664.75;;;8.81
77414;BMP280;66486;49.992;19.164;2023-04-15T02:45:10;97667.09;;;8.54
77414;BMP280;66486;49.992;19.164;2023-04-15T02:47:37;97660.13;;;8.56
77414;BMP280;66486;49.992;19.164;2023-04-15T02:50:11;97668.59;;;8.55
77414;BMP280;66486;49.992;19.164;2023-04-15T02:52:41;97681.16;;;8.70
77414;BMP280;66486;49.992;19.164;2023-04-15T02:55:07;97667.66;;;8.74
77414;BMP280;66486;49.992;19.164;2023-04-15T02:57:34;97669.78;;;8.54
77414;BMP280;66486;49.992;19.164;2023-04-15T03:00:05;97676.16;;;8.31
77414;BMP280;66486;49.992;19.164;2023-04-15T03:02:35;97675.59;;;8.07
77414;BMP280;66486;49.992;19.164;2023-04-15T03:05:01;97675.84;;;7.84
77414;BMP280;66486;49.992;19.164;2023-04-15T03:07:27;97676.53;;;7.72
77414;BMP280;66486;49.992;19.164;2023-04-15T03:09:53;97682.88;;;7.78
77414;BMP280;66486;49.992;19.164;2023-04-15T03:12:20;97681.03;;;7.75
77414;BMP280;66486;49.992;19.164;2023-04-15T03:14:46;97689.09;;;8.04
77414;BMP280;66486;49.992;19.164;2023-04-15T03:17:12;97686.16;;;8.14
77414;BMP280;66486;49.992;19.164;2023-04-15T03:19:37;97689.06;;;8.20
77414;BMP280;66486;49.992;19.164;2023-04-15T03:22:03;97684.28;;;8.40
77414;BMP280;66486;49.992;19.164;2023-04-15T03:24:29;97692.69;;;8.42
77414;BMP280;66486;49.992;19.164;2023-04-15T03:26:56;97693.88;;;8.12
77414;BMP280;66486;49.992;19.164;2023-04-15T03:29:22;97699.41;;;8.05
77414;BMP280;66486;49.992;19.164;2023-04-15T03:31:48;97690.44;;;7.96
77414;BMP280;66486;49.992;19.164;2023-04-15T03:34:15;97688.03;;;8.01
77414;BMP280;66486;49.992;19.164;2023-04-15T03:36:41;97688.34;;;8.03
77414;BMP280;66486;49.992;19.164;2023-04-15T03:39:06;97680.69;;;7.89
77414;BMP280;66486;49.992;19.164;2023-04-15T03:41:33;97687.19;;;8.04
77414;BMP280;66486;49.992;19.164;2023-04-15T03:43:59;97692.63;;;8.01
77414;BMP280;66486;49.992;19.164;2023-04-15T03:46:25;97700.06;;;8.09
77414;BMP280;66486;49.992;19.164;2023-04-15T03:48:51;97706.63;;;8.21
77414;BMP280;66486;49.992;19.164;2023-04-15T03:51:17;97705.19;;;8.33
77414;BMP280;66486;49.992;19.164;2023-04-15T03:53:43;97700.53;;;8.21
77414;BMP280;66486;49.992;19.164;2023-04-15T03:56:09;97710.56;;;8.17
77414;BMP280;66486;49.992;19.164;2023-04-15T03:58:35;97702.47;;;8.20
77414;BMP280;66486;49.992;19.164;2023-04-15T04:01:01;97709.38;;;8.34
77414;BMP280;66486;49.992;19.164;2023-04-15T04:03:27;97700.50;;;8.37
77414;BMP280;66486;49.992;19.164;2023-04-15T04:05:53;97711.66;;;8.48
77414;BMP280;66486;49.992;19.164;2023-04-15T04:08:19;97708.78;;;8.55
77414;BMP280;66486;49.992;19.164;2023-04-15T04:10:46;97700.78;;;8.80
77414;BMP280;66486;49.992;19.164;2023-04-15T04:13:12;97703.47;;;8.80
77414;BMP280;66486;49.992;19.164;2023-04-15T04:15:38;97704.63;;;8.54
77414;BMP280;66486;49.992;19.164;2023-04-15T04:18:04;97714.38;;;8.60
77414;BMP280;66486;49.992;19.164;2023-04-15T04:20:30;97720.97;;;8.72
77414;BMP280;66486;49.992;19.164;2023-04-15T04:22:57;97728.50;;;8.48
77414;BMP280;66486;49.992;19.164;2023-04-15T04:25:23;97728.75;;;8.54
77414;BMP280;66486;49.992;19.164;2023-04-15T04:27:49;97732.69;;;8.49
77414;BMP280;66486;49.992;19.164;2023-04-15T04:30:15;97740.06;;;8.74
77414;BMP280;66486;49.992;19.164;2023-04-15T04:32:41;97737.22;;;8.65
77414;BMP280;66486;49.992;19.164;2023-04-15T04:35:08;97746.25;;;8.71
77414;BMP280;66486;49.992;19.164;2023-04-15T04:37:34;97737.31;;;8.90
77414;BMP280;66486;49.992;19.164;2023-04-15T04:40:00;97728.72;;;8.95
77414;BMP280;66486;49.992;19.164;2023-04-15T04:42:26;97734.22;;;9.04
77414;BMP280;66486;49.992;19.164;2023-04-15T04:44:52;97749.75;;;9.09
77414;BMP280;66486;49.992;19.164;2023-04-15T04:47:18;97733.56;;;9.13
77414;BMP280;66486;49.992;19.164;2023-04-15T04:49:44;97743.88;;;9.14
77414;BMP280;66486;49.992;19.164;2023-04-15T04:52:10;97751.50;;;9.28
77414;BMP280;66486;49.992;19.164;2023-04-15T04:54:36;97752.06;;;9.23
77414;BMP280;66486;49.992;19.164;2023-04-15T04:57:02;97759.34;;;9.23
77414;BMP280;66486;49.992;19.164;2023-04-15T04:59:28;97757.41;;;9.23
77414;BMP280;66486;49.992;19.164;2023-04-15T05:01:54;97766.41;;;9.29
77414;BMP280;66486;49.992;19.164;2023-04-15T05:04:20;97759.44;;;9.32
77414;BMP280;66486;49.992;19.164;2023-04-15T05:06:46;97766.28;;;9.20
77414;BMP280;66486;49.992;19.164;2023-04-15T05:09:12;97763.41;;;9.15
77414;BMP280;66486;49.992;19.164;2023-04-15T05:11:38;97764.16;;;9.28
77414;BMP280;66486;49.992;19.164;2023-04-15T05:14:04;97777.25;;;9.26
77414;BMP280;66486;49.992;19.164;2023-04-15T05:16:30;97771.25;;;9.22
77414;BMP280;66486;49.992;19.164;2023-04-15T05:18:56;97773.28;;;9.43
77414;BMP280;66486;49.992;19.164;2023-04-15T05:21:22;97764.47;;;9.55
77414;BMP280;66486;49.992;19.164;2023-04-15T05:23:48;97768.97;;;9.08
77414;BMP280;66486;49.992;19.164;2023-04-15T05:26:14;97770.97;;;8.91
77414;BMP280;66486;49.992;19.164;2023-04-15T05:28:40;97759.53;;;9.03
77414;BMP280;66486;49.992;19.164;2023-04-15T05:31:06;97755.53;;;8.95
77414;BMP280;66486;49.992;19.164;2023-04-15T05:33:33;97759.41;;;8.94
77414;BMP280;66486;49.992;19.164;2023-04-15T05:35:59;97776.47;;;9.00
77414;BMP280;66486;49.992;19.164;2023-04-15T05:38:25;97773.03;;;9.00
77414;BMP280;66486;49.992;19.164;2023-04-15T05:40:51;97776.13;;;8.98
77414;BMP280;66486;49.992;19.164;2023-04-15T05:43:17;97783.91;;;9.21
77414;BMP280;66486;49.992;19.164;2023-04-15T05:45:43;97792.16;;;9.14
77414;BMP280;66486;49.992;19.164;2023-04-15T05:48:10;97796.47;;;9.12
77414;BMP280;66486;49.992;19.164;2023-04-15T05:50:35;97796.78;;;9.26
77414;BMP280;66486;49.992;19.164;2023-04-15T05:53:01;97790.66;;;9.26
77414;BMP280;66486;49.992;19.164;2023-04-15T05:55:27;97785.63;;;9.28
77414;BMP280;66486;49.992;19.164;2023-04-15T05:57:53;97782.53;;;9.67
77414;BMP280;66486;49.992;19.164;2023-04-15T06:00:19;97790.69;;;9.51
77414;BMP280;66486;49.992;19.164;2023-04-15T06:02:46;97792.38;;;9.70
77414;BMP280;66486;49.992;19.164;2023-04-15T06:05:12;97800.19;;;9.90
77414;BMP280;66486;49.992;19.164;2023-04-15T06:07:38;97802.50;;;10.13
77414;BMP280;66486;49.992;19.164;2023-04-15T06:10:04;97804.28;;;9.94
77414;BMP280;66486;49.992;19.164;2023-04-15T06:12:31;97805.50;;;10.15
77414;BMP280;66486;49.992;19.164;2023-04-15T06:14:57;97808.53;;;10.17
77414;BMP280;66486;49.992;19.164;2023-04-15T06:17:23;97817.09;;;10.37
77414;BMP280;66486;49.992;19.164;2023-04-15T06:19:49;97818.50;;;10.29
77414;BMP280;66486;49.992;19.164;2023-04-15T06:22:22;97812.69;;;10.31
77414;BMP280;66486;49.992;19.164;2023-04-15T06:24:49;97805.34;;;10.44
77414;BMP280;66486;49.992;19.164;2023-04-15T06:27:16;97806.88;;;10.32
77414;BMP280;66486;49.992;19.164;2023-04-15T06:29:42;97807.44;;;10.61
77414;BMP280;66486;49.992;19.164;2023-04-15T06:32:08;97807.47;;;10.71
77414;BMP280;66486;49.992;19.164;2023-04-15T06:34:35;97813.75;;;11.20
77414;BMP280;66486;49.992;19.164;2023-04-15T06:37:01;97809.50;;;11.41
77414;BMP280;66486;49.992;19.164;2023-04-15T06:39:27;97823.47;;;11.17
77414;BMP280;66486;49.992;19.164;2023-04-15T06:41:53;97818.25;;;11.23
77414;BMP280;66486;49.992;19.164;2023-04-15T06:44:19;97829.94;;;11.29
77414;BMP280;66486;49.992;19.164;2023-04-15T06:46:45;97833.56;;;11.35
77414;BMP280;66486;49.992;19.164;2023-04-15T06:49:11;97825.00;;;11.27
77414;BMP280;66486;49.992;19.164;2023-04-15T06:51:37;97835.13;;;11.45
77414;BMP280;66486;49.992;19.164;2023-04-15T06:54:03;97829.47;;;11.52
77414;BMP280;66486;49.992;19.164;2023-04-15T06:56:32;97825.63;;;11.71
77414;BMP280;66486;49.992;19.164;2023-04-15T06:58:57;97826.63;;;12.05
77414;BMP280;66486;49.992;19.164;2023-04-15T07:01:24;97829.75;;;11.94
77414;BMP280;66486;49.992;19.164;2023-04-15T07:03:50;97829.63;;;11.98
77414;BMP280;66486;49.992;19.164;2023-04-15T07:06:16;97831.09;;;12.08
77414;BMP280;66486;49.992;19.164;2023-04-15T07:08:42;97831.84;;;11.90
77414;BMP280;66486;49.992;19.164;2023-04-15T07:11:08;97838.03;;;11.60
77414;BMP280;66486;49.992;19.164;2023-04-15T07:13:34;97844.91;;;11.61
77414;BMP280;66486;49.992;19.164;2023-04-15T07:16:00;97832.91;;;12.02
77414;BMP280;66486;49.992;19.164;2023-04-15T07:18:26;97826.63;;;12.23
77414;BMP280;66486;49.992;19.164;2023-04-15T07:20:52;97837.72;;;12.34
77414;BMP280;66486;49.992;19.164;2023-04-15T07:23:18;97840.72;;;12.36
77414;BMP280;66486;49.992;19.164;2023-04-15T07:25:44;97848.22;;;12.32
77414;BMP280;66486;49.992;19.164;2023-04-15T07:28:10;97843.28;;;12.30
77414;BMP280;66486;49.992;19.164;2023-04-15T07:30:36;97843.56;;;12.32
77414;BMP280;66486;49.992;19.164;2023-04-15T07:33:02;97845.22;;;12.30
77414;BMP280;66486;49.992;19.164;2023-04-15T07:35:28;97843.88;;;12.71
77414;BMP280;66486;49.992;19.164;2023-04-15T07:37:54;97840.06;;;12.95
77414;BMP280;66486;49.992;19.164;2023-04-15T07:40:21;97849.84;;;13.44
77414;BMP280;66486;49.992;19.164;2023-04-15T07:42:47;97843.91;;;13.21
77414;BMP280;66486;49.992;19.164;2023-04-15T07:45:14;97839.69;;;13.20
77414;BMP280;66486;49.992;19.164;2023-04-15T07:47:40;97840.31;;;13.24
77414;BMP280;66486;49.992;19.164;2023-04-15T07:50:08;97834.84;;;13.33
77414;BMP280;66486;49.992;19.164;2023-04-15T07:52:35;97842.81;;;13.70
77414;BMP280;66486;49.992;19.164;2023-04-15T07:55:05;97837.81;;;14.39
77414;BMP280;66486;49.992;19.164;2023-04-15T07:57:36;97844.56;;;14.58
77414;BMP280;66486;49.992;19.164;2023-04-15T08:00:03;97838.31;;;14.52
77414;BMP280;66486;49.992;19.164;2023-04-15T08:02:32;97851.41;;;14.54
77414;BMP280;66486;49.992;19.164;2023-04-15T08:04:58;97847.56;;;14.90
77414;BMP280;66486;49.992;19.164;2023-04-15T08:07:25;97839.72;;;15.06
77414;BMP280;66486;49.992;19.164;2023-04-15T08:09:52;97840.38;;;15.50
77414;BMP280;66486;49.992;19.164;2023-04-15T08:12:17;97840.09;;;14.85
77414;BMP280;66486;49.992;19.164;2023-04-15T08:14:44;97833.13;;;14.25
77414;BMP280;66486;49.992;19.164;2023-04-15T08:17:10;97852.19;;;14.31
77414;BMP280;66486;49.992;19.164;2023-04-15T08:19:36;97846.38;;;14.38
77414;BMP280;66486;49.992;19.164;2023-04-15T08:22:02;97841.66;;;14.91
77414;BMP280;66486;49.992;19.164;2023-04-15T08:24:30;97837.94;;;15.18
77414;BMP280;66486;49.992;19.164;2023-04-15T08:26:56;97835.19;;;15.32
77414;BMP280;66486;49.992;19.164;2023-04-15T08:29:22;97834.47;;;15.03
77414;BMP280;66486;49.992;19.164;2023-04-15T08:31:48;97840.59;;;15.32
77414;BMP280;66486;49.992;19.164;2023-04-15T08:34:14;97842.97;;;15.60
77414;BMP280;66486;49.992;19.164;2023-04-15T08:36:41;97848.53;;;16.11
77414;BMP280;66486;49.992;19.164;2023-04-15T08:39:08;97849.22;;;16.52
77414;BMP280;66486;49.992;19.164;2023-04-15T08:41:39;97844.00;;;16.48
77414;BMP280;66486;49.992;19.164;2023-04-15T08:44:08;97849.66;;;16.45
77414;BMP280;66486;49.992;19.164;2023-04-15T08:46:35;97855.19;;;16.30
77414;BMP280;66486;49.992;19.164;2023-04-15T08:49:03;97864.44;;;16.95
77414;BMP280;66486;49.992;19.164;2023-04-15T08:51:30;97854.63;;;17.40
77414;BMP280;66486;49.992;19.164;2023-04-15T08:53:56;97855.66;;;17.11
77414;BMP280;66486;49.992;19.164;2023-04-15T08:56:27;97856.59;;;16.71
77414;BMP280;66486;49.992;19.164;2023-04-15T08:58:53;97855.19;;;16.56
77414;BMP280;66486;49.992;19.164;2023-04-15T09:01:19;97867.22;;;16.49
77414;BMP280;66486;49.992;19.164;2023-04-15T09:03:48;97850.28;;;16.60
77414;BMP280;66486;49.992;19.164;2023-04-15T09:06:16;97847.13;;;16.61
77414;BMP280;66486;49.992;19.164;2023-04-15T09:08:43;97861.81;;;17.06
77414;BMP280;66486;49.992;19.164;2023-04-15T09:11:09;97857.78;;;17.27
77414;BMP280;66486;49.992;19.164;2023-04-15T09:13:36;97860.44;;;17.22
77414;BMP280;66486;49.992;19.164;2023-04-15T09:16:01;97850.16;;;17.37
77414;BMP280;66486;49.992;19.164;2023-04-15T09:18:32;97858.56;;;17.75
77414;BMP280;66486;49.992;19.164;2023-04-15T09:21:08;97857.44;;;18.04
77414;BMP280;66486;49.992;19.164;2023-04-15T09:23:41;97857.97;;;17.60
77414;BMP280;66486;49.992;19.164;2023-04-15T09:26:07;97860.84;;;17.46
77414;BMP280;66486;49.992;19.164;2023-04-15T09:28:40;97847.16;;;16.98
77414;BMP280;66486;49.992;19.164;2023-04-15T09:31:06;97851.06;;;17.28
77414;BMP280;66486;49.992;19.164;2023-04-15T09:33:33;97862.50;;;17.32
77414;BMP280;66486;49.992;19.164;2023-04-15T09:36:01;97857.09;;;17.01
77414;BMP280;66486;49.992;19.164;2023-04-15T09:38:28;97853.22;;;16.82
77414;BMP280;66486;49.992;19.164;2023-04-15T09:40:54;97852.97;;;16.80
77414;BMP280;66486;49.992;19.164;2023-04-15T09:43:20;97854.91;;;17.11
77414;BMP280;66486;49.992;19.164;2023-04-15T09:45:53;97852.09;;;17.31
77414;BMP280;66486;49.992;19.164;2023-04-15T09:48:20;97851.94;;;17.45
77414;BMP280;66486;49.992;19.164;2023-04-15T09:50:49;97848.03;;;17.57
77414;BMP280;66486;49.992;19.164;2023-04-15T09:53:20;97850.59;;;17.66
77414;BMP280;66486;49.992;19.164;2023-04-15T09:55:57;97852.41;;;17.44
77414;BMP280;66486;49.992;19.164;2023-04-15T10:00:54;97845.44;;;16.95
77414;BMP280;66486;49.992;19.164;2023-04-15T10:03:23;97850.88;;;16.95
77414;BMP280;66486;49.992;19.164;2023-04-15T10:05:53;97852.00;;;16.88
77414;BMP280;66486;49.992;19.164;2023-04-15T10:08:22;97851.31;;;17.25
77414;BMP280;66486;49.992;19.164;2023-04-15T10:10:50;97854.53;;;17.65
77414;BMP280;66486;49.992;19.164;2023-04-15T10:13:21;97849.56;;;18.28
77414;BMP280;66486;49.992;19.164;2023-04-15T10:15:51;97837.06;;;17.94
77414;BMP280;66486;49.992;19.164;2023-04-15T10:18:24;97849.78;;;18.25
77414;BMP280;66486;49.992;19.164;2023-04-15T10:20:51;97846.84;;;18.34
77414;BMP280;66486;49.992;19.164;2023-04-15T10:23:19;97844.25;;;17.92
77414;BMP280;66486;49.992;19.164;2023-04-15T10:25:48;97847.72;;;17.44
77414;BMP280;66486;49.992;19.164;2023-04-15T10:28:15;97851.97;;;17.51
77414;BMP280;66486;49.992;19.164;2023-04-15T10:30:41;97849.06;;;17.23
77414;BMP280;66486;49.992;19.164;2023-04-15T10:33:08;97849.81;;;17.60
77414;BMP280;66486;49.992;19.164;2023-04-15T10:35:36;97838.50;;;17.78
77414;BMP280;66486;49.992;19.164;2023-04-15T10:38:32;97849.41;;;17.78
77414;BMP280;66486;49.992;19.164;2023-04-15T10:41:20;97844.44;;;17.71
77414;BMP280;66486;49.992;19.164;2023-04-15T10:43:54;97848.69;;;17.89
77414;BMP280;66486;49.992;19.164;2023-04-15T10:46:34;97848.94;;;17.85
77414;BMP280;66486;49.992;19.164;2023-04-15T10:49:10;97852.28;;;17.64
77414;BMP280;66486;49.992;19.164;2023-04-15T10:51:38;97846.50;;;17.45
77414;BMP280;66486;49.992;19.164;2023-04-15T10:54:13;97853.81;;;17.70
77414;BMP280;66486;49.992;19.164;2023-04-15T10:56:50;97851.13;;;17.87
77414;BMP280;66486;49.992;19.164;2023-04-15T10:59:17;97858.41;;;18.07
77414;BMP280;66486;49.992;19.164;2023-04-15T11:01:59;97853.69;;;17.48
77414;BMP280;66486;49.992;19.164;2023-04-15T11:04:55;97848.19;;;17.37
77414;BMP280;66486;49.992;19.164;2023-04-15T11:07:53;97848.56;;;17.56
77414;BMP280;66486;49.992;19.164;2023-04-15T11:15:37;97860.00;;;17.71
77414;BMP280;66486;49.992;19.164;2023-04-15T11:20:43;97848.25;;;17.54
77414;BMP280;66486;49.992;19.164;2023-04-15T11:23:10;97856.53;;;17.70
77414;BMP280;66486;49.992;19.164;2023-04-15T11:25:36;97847.28;;;18.05
77414;BMP280;66486;49.992;19.164;2023-04-15T11:28:03;97856.44;;;18.07
77414;BMP280;66486;49.992;19.164;2023-04-15T11:30:32;97854.03;;;18.37
77414;BMP280;66486;49.992;19.164;2023-04-15T11:33:00;97859.19;;;18.24
77414;BMP280;66486;49.992;19.164;2023-04-15T11:35:26;97850.28;;;18.18
77414;BMP280;66486;49.992;19.164;2023-04-15T11:37:53;97847.06;;;18.14
77414;BMP280;66486;49.992;19.164;2023-04-15T11:40:27;97849.88;;;17.71
77414;BMP280;66486;49.992;19.164;2023-04-15T11:43:08;97865.00;;;17.83
77414;BMP280;66486;49.992;19.164;2023-04-15T11:45:35;97859.34;;;17.98
77414;BMP280;66486;49.992;19.164;2023-04-15T11:48:09;97851.00;;;18.24
77414;BMP280;66486;49.992;19.164;2023-04-15T11:50:37;97861.50;;;18.64
77414;BMP280;66486;49.992;19.164;2023-04-15T11:53:06;97855.81;;;18.84
77414;BMP280;66486;49.992;19.164;2023-04-15T11:55:49;97857.03;;;19.05
77414;BMP280;66486;49.992;19.164;2023-04-15T11:58:21;97855.97;;;19.41
77414;BMP280;66486;49.992;19.164;2023-04-15T12:00:50;97844.13;;;19.85
77414;BMP280;66486;49.992;19.164;2023-04-15T12:11:26;97845.41;;;18.66
77414;BMP280;66486;49.992;19.164;2023-04-15T12:16:37;97853.72;;;18.13
77414;BMP280;66486;49.992;19.164;2023-04-15T12:19:12;97862.72;;;18.57
77414;BMP280;66486;49.992;19.164;2023-04-15T12:21:41;97855.16;;;17.97
77414;BMP280;66486;49.992;19.164;2023-04-15T12:24:10;97855.97;;;17.55
77414;BMP280;66486;49.992;19.164;2023-04-15T12:26:46;97849.53;;;17.16
77414;BMP280;66486;49.992;19.164;2023-04-15T12:29:14;97855.22;;;17.18
77414;BMP280;66486;49.992;19.164;2023-04-15T12:31:54;97852.41;;;17.44
77414;BMP280;66486;49.992;19.164;2023-04-15T12:34:43;97856.94;;;17.52
77414;BMP280;66486;49.992;19.164;2023-04-15T12:37:11;97859.28;;;17.34
77414;BMP280;66486;49.992;19.164;2023-04-15T12:39:42;97862.38;;;17.58
77414;BMP280;66486;49.992;19.164;2023-04-15T12:42:09;97852.94;;;17.42
77414;BMP280;66486;49.992;19.164;2023-04-15T12:44:36;97852.28;;;17.64
77414;BMP280;66486;49.992;19.164;2023-04-15T12:47:03;97844.25;;;17.44
77414;BMP280;66486;49.992;19.164;2023-04-15T12:49:29;97852.25;;;17.16
77414;BMP280;66486;49.992;19.164;2023-04-15T12:51:58;97848.47;;;17.45
77414;BMP280;66486;49.992;19.164;2023-04-15T12:54:28;97856.72;;;17.61
77414;BMP280;66486;49.992;19.164;2023-04-15T12:56:55;97855.13;;;17.92
77414;BMP280;66486;49.992;19.164;2023-04-15T12:59:21;97857.22;;;18.19
77414;BMP280;66486;49.992;19.164;2023-04-15T13:01:49;97866.66;;;18.40
77414;BMP280;66486;49.992;19.164;2023-04-15T13:04:16;97862.19;;;18.26
77414;BMP280;66486;49.992;19.164;2023-04-15T13:06:43;97858.72;;;18.31
77414;BMP280;66486;49.992;19.164;2023-04-15T13:09:08;97871.41;;;18.67
77414;BMP280;66486;49.992;19.164;2023-04-15T13:11:35;97869.84;;;18.22
77414;BMP280;66486;49.992;19.164;2023-04-15T13:14:05;97873.75;;;18.04
77414;BMP280;66486;49.992;19.164;2023-04-15T13:16:31;97875.84;;;18.53
77414;BMP280;66486;49.992;19.164;2023-04-15T13:18:58;97875.88;;;18.81
77414;BMP280;66486;49.992;19.164;2023-04-15T13:21:25;97870.94;;;18.91
77414;BMP280;66486;49.992;19.164;2023-04-15T13:23:51;97880.06;;;19.15
77414;BMP280;66486;49.992;19.164;2023-04-15T13:26:18;97880.06;;;18.60
77414;BMP280;66486;49.992;19.164;2023-04-15T13:28:44;97889.97;;;18.57
77414;BMP280;66486;49.992;19.164;2023-04-15T13:31:11;97887.69;;;18.34
77414;BMP280;66486;49.992;19.164;2023-04-15T13:33:37;97883.75;;;18.46
77414;BMP280;66486;49.992;19.164;2023-04-15T13:36:03;97893.69;;;18.65
77414;BMP280;66486;49.992;19.164;2023-04-15T13:38:29;97888.50;;;18.90
77414;BMP280;66486;49.992;19.164;2023-04-15T13:40:55;97893.94;;;19.28
77414;BMP280;66486;49.992;19.164;2023-04-15T13:43:21;97888.78;;;19.14
77414;BMP280;66486;49.992;19.164;2023-04-15T13:45:48;97885.03;;;19.06
77414;BMP280;66486;49.992;19.164;2023-04-15T13:48:14;97890.97;;;18.93
77414;BMP280;66486;49.992;19.164;2023-04-15T13:50:41;97902.63;;;18.94
77414;BMP280;66486;49.992;19.164;2023-04-15T13:53:10;97899.38;;;18.51
77414;BMP280;66486;49.992;19.164;2023-04-15T13:55:37;97898.44;;;18.65
77414;BMP280;66486;49.992;19.164;2023-04-15T13:58:07;97898.13;;;18.52
77414;BMP280;66486;49.992;19.164;2023-04-15T14:00:33;97897.13;;;18.60
77414;BMP280;66486;49.992;19.164;2023-04-15T14:02:59;97896.63;;;18.45
77414;BMP280;66486;49.992;19.164;2023-04-15T14:05:25;97892.22;;;18.59
77414;BMP280;66486;49.992;19.164;2023-04-15T14:07:51;97897.13;;;18.33
77414;BMP280;66486;49.992;19.164;2023-04-15T14:10:18;97894.06;;;18.20
77414;BMP280;66486;49.992;19.164;2023-04-15T14:12:43;97898.41;;;17.84
77414;BMP280;66486;49.992;19.164;2023-04-15T14:15:10;97895.16;;;17.80
77414;BMP280;66486;49.992;19.164;2023-04-15T14:17:36;97896.38;;;17.31
77414;BMP280;66486;49.992;19.164;2023-04-15T14:20:02;97898.78;;;17.29
77414;BMP280;66486;49.992;19.164;2023-04-15T14:22:28;97905.50;;;17.34
77414;BMP280;66486;49.992;19.164;2023-04-15T14:24:54;97898.25;;;17.62